Time;durP1;ratioP1;P1;durP2;ratioP2;P2;SDS_P1;SDS_P2;PMS_P1;PMS_P2;Temp;Humidity;BMP_temperature;BMP_pressure;BME280_temperature;BME280_humidity;BME280_pressure;Samples;Min_cycle;Max_cycle;Signal;HPM_P1;HPM_P2
2021/06/20 00:01:31;;;;;;;11.73;9.70;;;28.80;51.00;;;;;;5050059;28;21229;-53
2021/06/20 00:03:58;;;;;;;8.50;7.70;;;28.90;51.10;;;;;;5042657;28;20701;-53
2021/06/20 00:06:29;;;;;;;10.10;9.30;;;28.90;51.00;;;;;;5050223;28;20689;-54
2021/06/20 00:08:56;;;;;;;10.63;9.57;;;29.00;51.00;;;;;;5051021;28;21402;-54
2021/06/20 00:11:23;;;;;;;11.80;9.30;;;29.00;50.80;;;;;;5051312;28;20630;-54
2021/06/20 00:13:51;;;;;;;12.17;9.03;;;29.10;50.80;;;;;;5051228;28;20797;-53
2021/06/20 00:16:18;;;;;;;9.87;8.77;;;29.10;50.70;;;;;;5050837;28;21320;-54
2021/06/20 00:18:45;;;;;;;9.27;8.47;;;29.10;50.70;;;;;;5032922;28;20695;-53
2021/06/20 00:21:13;;;;;;;14.53;9.80;;;29.10;50.60;;;;;;5049697;28;20697;-52
2021/06/20 00:23:41;;;;;;;13.50;9.53;;;29.10;50.60;;;;;;5052544;28;20629;-53
2021/06/20 00:26:09;;;;;;;10.03;9.10;;;29.10;50.50;;;;;;5052702;28;20797;-52
2021/06/20 00:28:36;;;;;;;11.20;10.10;;;29.10;50.50;;;;;;5053222;28;20626;-54
2021/06/20 00:31:04;;;;;;;13.40;8.20;;;29.10;50.40;;;;;;5051082;28;20657;-52
2021/06/20 00:33:31;;;;;;;17.63;10.60;;;29.10;50.30;;;;;;5050601;28;20719;-52
2021/06/20 00:35:59;;;;;;;10.10;7.87;;;29.10;50.20;;;;;;5050945;28;20704;-50
2021/06/20 00:38:26;;;;;;;9.23;8.03;;;29.20;50.10;;;;;;5050703;28;20650;-51
2021/06/20 00:40:55;;;;;;;8.80;7.90;;;29.20;49.80;;;;;;5051044;28;21229;-50
2021/06/20 00:43:22;;;;;;;10.47;9.30;;;29.20;49.50;;;;;;5051071;28;20649;-50
2021/06/20 00:45:49;;;;;;;9.87;8.87;;;29.30;49.90;;;;;;5040730;28;20686;-52
2021/06/20 00:48:16;;;;;;;13.53;9.97;;;29.30;49.20;;;;;;5030924;28;20749;-51
2021/06/20 00:50:43;;;;;;;10.97;8.90;;;29.40;48.90;;;;;;5031022;28;20631;-50
2021/06/20 00:53:11;;;;;;;9.70;8.53;;;29.40;48.80;;;;;;5040858;28;21055;-51
2021/06/20 00:55:38;;;;;;;10.13;9.07;;;29.50;48.80;;;;;;5050788;28;20697;-51
2021/06/20 00:58:07;;;;;;;14.83;9.87;;;29.50;48.60;;;;;;5050123;28;21400;-51
2021/06/20 01:00:35;;;;;;;16.50;8.43;;;29.50;48.60;;;;;;5034157;28;20658;-50
2021/06/20 01:03:03;;;;;;;10.63;8.30;;;29.50;48.50;;;;;;5030745;28;20658;-51
2021/06/20 01:05:30;;;;;;;11.13;8.03;;;29.60;48.50;;;;;;5030451;28;21185;-52
2021/06/20 01:07:57;;;;;;;8.30;7.50;;;29.60;48.60;;;;;;5030595;28;20657;-54
2021/06/20 01:10:25;;;;;;;9.33;8.07;;;29.60;48.50;;;;;;5043174;28;20658;-53
2021/06/20 01:12:52;;;;;;;8.23;7.37;;;29.60;48.60;;;;;;5047849;28;20650;-52
2021/06/20 01:15:21;;;;;;;12.23;7.40;;;29.50;49.10;;;;;;5048244;28;20690;-53
2021/06/20 01:17:48;;;;;;;9.53;8.20;;;29.50;50.00;;;;;;5050110;28;20666;-51
2021/06/20 01:20:18;;;;;;;19.40;9.43;;;29.40;49.90;;;;;;5050277;28;20626;-50
2021/06/20 01:22:47;;;;;;;13.27;8.23;;;29.30;50.70;;;;;;5046091;28;20627;-51
2021/06/20 01:25:16;;;;;;;9.60;7.53;;;29.20;51.10;;;;;;5031084;28;20642;-50
2021/06/20 01:27:44;;;;;;;10.10;8.90;;;29.20;51.50;;;;;;5034315;28;21170;-51
2021/06/20 01:30:13;;;;;;;10.30;9.27;;;29.10;51.80;;;;;;5049950;28;20669;-51
2021/06/20 01:32:40;;;;;;;10.13;8.13;;;29.10;52.60;;;;;;5050338;28;20769;-52
2021/06/20 01:35:10;;;;;;;12.60;9.33;;;29.00;53.10;;;;;;5050210;28;20691;-52
2021/06/20 01:37:37;;;;;;;14.03;9.87;;;28.90;53.40;;;;;;5037939;28;20671;-51
2021/06/20 01:40:07;;;;;;;16.80;9.47;;;28.90;53.90;;;;;;5039861;28;20622;-50
2021/06/20 01:42:34;;;;;;;12.53;10.27;;;28.80;54.40;;;;;;5049912;28;20626;-51
2021/06/20 01:45:01;;;;;;;15.80;9.00;;;28.70;54.70;;;;;;5049128;28;20630;-52
2021/06/20 01:47:29;;;;;;;14.50;9.23;;;28.70;55.10;;;;;;5050148;28;20998;-51
2021/06/20 01:49:58;;;;;;;14.10;9.53;;;28.70;55.30;;;;;;5049708;28;20665;-51
2021/06/20 01:52:26;;;;;;;11.90;9.40;;;28.50;55.50;;;;;;5031275;28;20667;-52
2021/06/20 01:54:53;;;;;;;9.90;8.90;;;28.50;55.70;;;;;;5029801;28;21192;-52
2021/06/20 01:57:23;;;;;;;18.17;10.30;;;28.50;56.10;;;;;;5030034;28;20659;-51
2021/06/20 01:59:50;;;;;;;10.93;9.30;;;28.40;56.20;;;;;;5048387;28;20658;-50
2021/06/20 02:02:17;;;;;;;16.23;10.03;;;28.40;56.50;;;;;;5049422;28;20622;-52
2021/06/20 02:04:45;;;;;;;12.00;9.60;;;28.40;56.60;;;;;;5044961;28;20634;-50
2021/06/20 02:07:12;;;;;;;11.20;9.77;;;28.40;56.70;;;;;;5029242;28;21136;-51
2021/06/20 02:09:39;;;;;;;18.20;10.23;;;28.40;56.80;;;;;;5036584;28;20645;-51
2021/06/20 02:12:07;;;;;;;15.17;9.30;;;28.40;56.90;;;;;;5049172;28;20662;-50
2021/06/20 02:14:36;;;;;;;17.50;9.73;;;28.40;57.10;;;;;;5049395;28;20700;-50
2021/06/20 02:17:11;;;;;;;11.10;9.93;;;28.40;57.10;;;;;;5049417;28;20688;-51
2021/06/20 02:19:39;;;;;;;13.60;9.70;;;28.40;57.20;;;;;;5048882;28;20693;-51
2021/06/20 02:22:06;;;;;;;12.90;9.80;;;28.40;57.20;;;;;;5049297;28;21175;-53
2021/06/20 02:24:33;;;;;;;14.13;10.70;;;28.40;57.40;;;;;;5048763;28;21035;-51
2021/06/20 02:27:00;;;;;;;24.23;10.77;;;28.40;57.50;;;;;;5047739;28;20772;-50
2021/06/20 02:29:27;;;;;;;15.80;10.33;;;28.40;57.60;;;;;;5052303;28;20665;-51
2021/06/20 02:31:56;;;;;;;14.00;10.40;;;28.40;58.20;;;;;;5053202;28;21218;-51
2021/06/20 02:34:23;;;;;;;18.13;9.63;;;28.40;57.80;;;;;;5052971;28;20674;-51
2021/06/20 02:36:50;;;;;;;14.40;9.03;;;28.40;58.00;;;;;;5053048;28;20716;-51
2021/06/20 02:39:18;;;;;;;14.40;10.10;;;28.40;58.10;;;;;;5053192;28;20663;-51
2021/06/20 02:41:49;;;;;;;16.10;10.57;;;28.40;58.30;;;;;;5052917;28;20750;-51
2021/06/20 02:44:16;;;;;;;20.13;10.10;;;28.40;58.40;;;;;;5053056;28;20615;-51
2021/06/20 02:46:44;;;;;;;16.27;10.07;;;28.40;58.50;;;;;;5052978;28;20642;-51
2021/06/20 02:49:12;;;;;;;14.63;9.43;;;28.40;58.50;;;;;;5052594;28;20640;-52
2021/06/20 02:51:42;;;;;;;17.03;9.30;;;28.40;58.50;;;;;;5053117;28;20964;-51
2021/06/20 02:54:10;;;;;;;19.90;9.60;;;28.30;58.50;;;;;;5052916;28;21088;-50
2021/06/20 02:56:37;;;;;;;17.63;9.20;;;28.20;58.30;;;;;;5052872;28;20793;-52
2021/06/20 02:59:04;;;;;;;14.97;8.70;;;28.10;58.40;;;;;;5034066;28;20662;-51
2021/06/20 03:01:31;;;;;;;17.70;9.37;;;28.10;58.60;;;;;;5042979;28;20654;-51
2021/06/20 03:03:58;;;;;;;15.70;9.80;;;28.10;58.80;;;;;;5053015;28;20653;-51
2021/06/20 03:06:27;;;;;;;15.33;8.70;;;28.10;58.90;;;;;;5052517;28;20689;-52
2021/06/20 03:08:54;;;;;;;14.17;8.20;;;28.10;59.00;;;;;;5052876;28;20661;-51
2021/06/20 03:11:21;;;;;;;19.57;8.87;;;28.10;58.90;;;;;;5052506;28;20727;-52
2021/06/20 03:13:49;;;;;;;15.70;8.90;;;28.00;58.80;;;;;;5052218;28;20700;-51
2021/06/20 03:16:17;;;;;;;14.40;9.17;;;28.00;58.90;;;;;;5052861;28;21207;-52
2021/06/20 03:18:44;;;;;;;9.90;6.57;;;27.90;58.70;;;;;;5052243;28;20661;-51
2021/06/20 03:21:12;;;;;;;13.70;6.57;;;27.80;57.40;;;;;;5052732;28;20760;-53
2021/06/20 03:23:40;;;;;;;8.53;5.70;;;27.80;56.70;;;;;;5052174;28;20692;-52
2021/06/20 03:26:08;;;;;;;10.23;5.30;;;27.60;55.90;;;;;;5046913;28;20670;-51
2021/06/20 03:28:35;;;;;;;9.40;4.60;;;27.50;55.60;;;;;;5052322;28;20656;-51
2021/06/20 03:31:02;;;;;;;6.90;4.27;;;27.40;55.20;;;;;;5052640;28;20629;-52
2021/06/20 03:33:30;;;;;;;7.40;4.30;;;27.40;54.80;;;;;;5052499;28;21131;-51
2021/06/20 03:35:57;;;;;;;10.03;4.67;;;27.30;54.90;;;;;;5052138;28;20693;-52
2021/06/20 03:38:24;;;;;;;9.60;4.60;;;27.30;54.80;;;;;;5052273;28;20649;-51
2021/06/20 03:40:54;;;;;;;9.87;4.60;;;27.30;54.70;;;;;;5050704;28;20669;-53
2021/06/20 03:43:21;;;;;;;9.00;4.60;;;27.20;54.60;;;;;;5052719;28;20991;-53
2021/06/20 03:45:48;;;;;;;11.60;3.70;;;27.20;54.60;;;;;;5052288;28;20674;-52
2021/06/20 03:48:16;;;;;;;8.80;5.00;;;27.20;54.50;;;;;;5051912;28;20657;-53
2021/06/20 03:50:43;;;;;;;8.90;3.87;;;27.10;54.50;;;;;;5052353;28;20695;-53
2021/06/20 03:53:11;;;;;;;5.20;2.90;;;27.10;54.70;;;;;;5048939;28;20674;-54
2021/06/20 03:55:38;;;;;;;10.47;3.57;;;27.00;54.70;;;;;;5050378;28;20702;-52
2021/06/20 03:58:07;;;;;;;7.90;4.43;;;26.90;55.00;;;;;;5051380;28;20654;-54
2021/06/20 04:00:34;;;;;;;8.87;4.20;;;26.80;55.30;;;;;;5051571;28;20617;-52
2021/06/20 04:03:02;;;;;;;4.50;3.80;;;26.80;55.70;;;;;;5051724;28;20654;-53
2021/06/20 04:05:29;;;;;;;6.23;3.63;;;26.70;55.80;;;;;;5045059;28;20959;-53
2021/06/20 04:07:57;;;;;;;6.00;3.77;;;26.70;55.90;;;;;;5047702;28;20664;-51
2021/06/20 04:10:24;;;;;;;8.50;3.40;;;26.70;56.10;;;;;;5039823;28;20615;-53
2021/06/20 04:12:52;;;;;;;9.00;3.93;;;26.70;56.20;;;;;;5044953;28;20662;-50
2021/06/20 04:15:21;;;;;;;7.63;4.47;;;26.60;56.40;;;;;;5050367;28;20682;-52
2021/06/20 04:17:48;;;;;;;8.43;3.80;;;26.50;56.70;;;;;;5050512;28;21249;-48
2021/06/20 04:20:15;;;;;;;7.87;3.80;;;26.50;57.10;;;;;;5050247;28;21139;-50
2021/06/20 04:22:43;;;;;;;9.03;4.20;;;26.40;57.30;;;;;;5041603;28;20654;-52
2021/06/20 04:25:13;;;;;;;6.13;3.80;;;26.40;57.60;;;;;;5047021;28;20646;-52
2021/06/20 04:27:40;;;;;;;6.30;4.13;;;26.30;57.80;;;;;;5039380;28;20662;-52
2021/06/20 04:30:10;;;;;;;7.20;3.83;;;26.30;57.90;;;;;;5047973;28;20673;-52
2021/06/20 04:32:39;;;;;;;6.60;3.97;;;26.30;58.10;;;;;;5049271;28;20700;-53
2021/06/20 04:35:07;;;;;;;7.47;4.87;;;26.30;58.20;;;;;;5041875;28;21300;-52
2021/06/20 04:37:34;;;;;;;6.63;3.37;;;26.30;58.30;;;;;;5050896;28;20854;-54
2021/06/20 04:40:03;;;;;;;5.23;4.53;;;26.20;58.40;;;;;;5047354;28;20867;-54
2021/06/20 04:42:33;;;;;;;8.57;3.50;;;26.30;58.70;;;;;;5049934;28;20626;-54
2021/06/20 04:45:01;;;;;;;5.10;3.97;;;26.20;58.80;;;;;;5049538;28;20990;-53
2021/06/20 04:47:29;;;;;;;6.13;4.10;;;26.10;59.20;;;;;;5042396;28;21039;-53
2021/06/20 04:49:57;;;;;;;6.60;3.60;;;26.10;59.50;;;;;;5045220;28;20669;-53
2021/06/20 04:52:25;;;;;;;9.30;4.40;;;26.10;59.70;;;;;;5038811;28;20615;-54
2021/06/20 04:54:53;;;;;;;4.17;3.70;;;26.00;59.80;;;;;;5045386;28;20665;-53
2021/06/20 04:57:21;;;;;;;4.43;3.80;;;26.00;60.00;;;;;;5049616;28;20654;-50
2021/06/20 04:59:48;;;;;;;8.50;4.20;;;26.00;60.00;;;;;;5042919;28;21219;-51
2021/06/20 05:02:16;;;;;;;5.03;3.60;;;26.00;60.10;;;;;;5047707;28;20699;-52
2021/06/20 05:04:43;;;;;;;4.57;3.40;;;25.90;60.50;;;;;;5044765;28;20634;-51
2021/06/20 05:07:12;;;;;;;6.13;3.77;;;25.90;60.80;;;;;;5041345;28;20704;-52
2021/06/20 05:09:40;;;;;;;8.80;4.53;;;26.00;60.90;;;;;;5049266;28;20630;-51
2021/06/20 05:12:08;;;;;;;10.83;4.23;;;26.00;60.60;;;;;;5049324;28;20654;-51
2021/06/20 05:14:35;;;;;;;6.20;3.63;;;26.10;60.50;;;;;;5049864;28;20638;-52
2021/06/20 05:17:03;;;;;;;3.70;3.17;;;26.10;60.30;;;;;;5049135;28;20698;-50
2021/06/20 05:19:30;;;;;;;4.50;3.10;;;26.10;60.40;;;;;;5043162;28;20623;-49
2021/06/20 05:21:57;;;;;;;7.87;3.80;;;26.10;60.60;;;;;;5041432;28;20662;-50
2021/06/20 05:24:26;;;;;;;6.10;3.60;;;26.10;60.60;;;;;;5044521;28;20658;-52
2021/06/20 05:26:53;;;;;;;6.00;3.70;;;26.00;60.90;;;;;;5046042;28;20654;-50
2021/06/20 05:29:20;;;;;;;11.33;5.10;;;26.00;61.20;;;;;;5048032;28;20633;-50
2021/06/20 05:31:48;;;;;;;4.83;3.73;;;26.00;61.60;;;;;;5035048;28;20677;-49
2021/06/20 05:34:15;;;;;;;4.83;3.27;;;26.00;61.80;;;;;;5034616;28;20687;-52
2021/06/20 05:36:42;;;;;;;4.47;3.60;;;26.00;61.90;;;;;;5041920;28;20748;-49
2021/06/20 05:39:09;;;;;;;6.50;3.93;;;26.00;61.90;;;;;;5045966;28;20680;-50
2021/06/20 05:41:38;;;;;;;4.00;3.10;;;26.00;62.20;;;;;;5048168;28;21198;-49
2021/06/20 05:44:05;;;;;;;6.13;4.20;;;26.00;62.00;;;;;;5049345;28;20673;-49
2021/06/20 05:46:32;;;;;;;5.90;3.60;;;25.90;62.10;;;;;;5048327;28;21065;-50
2021/06/20 05:48:59;;;;;;;7.97;3.60;;;25.90;62.50;;;;;;5042839;28;20631;-51
2021/06/20 05:51:27;;;;;;;3.37;2.73;;;25.80;62.70;;;;;;5047046;28;20642;-50
2021/06/20 05:53:54;;;;;;;9.50;3.50;;;25.80;63.00;;;;;;5036494;28;20659;-51
2021/06/20 05:56:21;;;;;;;5.20;4.07;;;25.70;63.70;;;;;;5045464;28;20767;-49
2021/06/20 05:58:49;;;;;;;8.80;3.50;;;25.60;63.90;;;;;;5048639;28;20983;-50
2021/06/20 06:01:17;;;;;;;3.50;3.20;;;25.60;64.20;;;;;;5048715;28;20661;-51
2021/06/20 06:03:44;;;;;;;4.27;3.43;;;25.60;64.50;;;;;;5033404;28;20646;-51
2021/06/20 06:06:11;;;;;;;5.23;3.37;;;25.60;64.90;;;;;;5048757;28;21256;-50
2021/06/20 06:08:38;;;;;;;3.90;2.97;;;25.60;65.20;;;;;;5047886;28;20662;-51
2021/06/20 06:11:05;;;;;;;5.73;3.90;;;25.60;65.50;;;;;;5048796;28;20646;-53
2021/06/20 06:13:33;;;;;;;5.30;3.93;;;25.60;65.50;;;;;;5048457;28;20669;-50
2021/06/20 06:16:01;;;;;;;8.53;4.40;;;25.60;65.60;;;;;;5043218;28;21112;-52
2021/06/20 06:18:28;;;;;;;4.93;4.00;;;25.50;66.20;;;;;;5044287;28;20688;-52
2021/06/20 06:20:56;;;;;;;5.13;3.60;;;25.50;66.50;;;;;;5040263;28;21131;-51
2021/06/20 06:23:23;;;;;;;7.20;3.60;;;25.50;66.20;;;;;;5045705;28;21067;-52
2021/06/20 06:25:50;;;;;;;6.80;3.93;;;25.60;66.10;;;;;;5040036;28;20674;-49
2021/06/20 06:28:17;;;;;;;9.90;4.50;;;25.60;65.60;;;;;;5048343;28;20657;-49
2021/06/20 06:30:44;;;;;;;4.50;3.03;;;25.60;66.30;;;;;;5045455;28;20769;-51
2021/06/20 06:33:13;;;;;;;7.57;4.23;;;25.50;66.50;;;;;;5042944;28;20653;-50
2021/06/20 06:35:40;;;;;;;6.50;3.70;;;25.50;66.10;;;;;;5041838;28;20697;-50
2021/06/20 06:38:08;;;;;;;5.87;3.97;;;25.60;66.20;;;;;;5037254;28;20659;-50
2021/06/20 06:40:36;;;;;;;7.47;3.80;;;25.70;65.80;;;;;;5046629;28;20695;-50
2021/06/20 06:43:03;;;;;;;6.80;3.97;;;25.70;65.50;;;;;;5047932;28;20661;-51
2021/06/20 06:45:30;;;;;;;7.53;3.70;;;25.70;65.40;;;;;;5040412;28;21116;-52
2021/06/20 06:47:57;;;;;;;10.30;4.20;;;25.80;65.70;;;;;;5033089;28;20656;-53
2021/06/20 06:50:26;;;;;;;4.03;3.20;;;25.80;65.50;;;;;;5047595;28;20622;-50
2021/06/20 06:52:53;;;;;;;6.47;4.60;;;25.80;65.40;;;;;;5037373;28;20658;-52
2021/06/20 06:55:21;;;;;;;4.17;3.63;;;25.80;65.60;;;;;;5048357;28;20682;-51
2021/06/20 06:57:48;;;;;;;8.60;4.47;;;25.90;65.50;;;;;;5046423;28;20686;-51
2021/06/20 07:00:16;;;;;;;4.10;3.67;;;25.90;65.00;;;;;;5042114;28;20684;-52
2021/06/20 07:02:43;;;;;;;8.70;4.07;;;25.90;64.70;;;;;;5048109;28;21438;-51
2021/06/20 07:05:10;;;;;;;4.77;4.37;;;26.00;64.70;;;;;;5048089;28;20689;-50
2021/06/20 07:07:39;;;;;;;4.60;4.20;;;26.00;64.20;;;;;;5039600;28;20668;-50
2021/06/20 07:10:07;;;;;;;5.87;4.67;;;26.10;63.80;;;;;;5040576;28;20610;-49
2021/06/20 07:12:34;;;;;;;4.13;3.53;;;26.10;63.30;;;;;;5041328;28;20650;-50
2021/06/20 07:15:04;;;;;;;5.90;5.23;;;26.10;63.30;;;;;;5040053;28;20651;-51
2021/06/20 07:17:31;;;;;;;6.70;4.60;;;26.00;63.80;;;;;;5047246;28;20708;-50
2021/06/20 07:19:58;;;;;;;6.63;5.20;;;26.00;64.10;;;;;;5050320;28;21049;-50
2021/06/20 07:22:26;;;;;;;6.60;4.37;;;26.00;63.60;;;;;;5044272;28;21234;-51
2021/06/20 07:24:54;;;;;;;6.90;4.67;;;26.10;64.10;;;;;;5043178;28;20660;-50
2021/06/20 07:27:21;;;;;;;7.63;5.40;;;26.10;63.60;;;;;;5043806;28;21182;-50
2021/06/20 07:29:49;;;;;;;6.83;4.60;;;26.10;63.60;;;;;;5035935;28;20662;-51
2021/06/20 07:32:16;;;;;;;8.70;5.00;;;26.20;63.30;;;;;;5052082;28;20688;-51
2021/06/20 07:34:43;;;;;;;5.97;4.27;;;26.30;62.80;;;;;;5051623;28;21178;-50
2021/06/20 07:37:10;;;;;;;7.10;4.63;;;26.30;62.70;;;;;;5047474;28;20690;-50
2021/06/20 07:39:38;;;;;;;5.33;4.73;;;26.30;62.70;;;;;;5038839;28;21047;-51
2021/06/20 07:42:07;;;;;;;5.23;4.37;;;26.30;62.40;;;;;;5037862;28;21402;-52
2021/06/20 07:44:34;;;;;;;4.90;4.47;;;26.40;61.70;;;;;;5042573;28;20761;-51
2021/06/20 07:47:01;;;;;;;7.03;4.30;;;26.30;61.20;;;;;;5047756;28;20677;-50
2021/06/20 07:49:28;;;;;;;11.57;5.70;;;26.30;61.40;;;;;;5045904;28;20765;-51
2021/06/20 07:51:56;;;;;;;5.60;4.30;;;26.30;61.90;;;;;;5051506;28;21134;-51
2021/06/20 07:54:23;;;;;;;5.10;4.10;;;26.60;62.10;;;;;;5050486;28;20622;-51
2021/06/20 07:56:50;;;;;;;8.70;4.57;;;27.00;60.90;;;;;;5042295;28;21144;-52
2021/06/20 07:59:19;;;;;;;4.40;3.77;;;27.30;59.70;;;;;;5043352;28;20654;-52
2021/06/20 08:01:46;;;;;;;4.30;3.83;;;27.40;58.80;;;;;;5050937;28;20650;-51
2021/06/20 08:04:13;;;;;;;5.97;4.40;;;27.50;58.60;;;;;;5048625;28;20665;-51
2021/06/20 08:06:41;;;;;;;7.00;4.90;;;27.70;58.40;;;;;;5042889;28;21075;-51
2021/06/20 08:09:08;;;;;;;7.37;4.53;;;27.80;57.70;;;;;;5046287;28;20657;-51
2021/06/20 08:11:35;;;;;;;7.20;4.80;;;27.90;57.10;;;;;;5044783;28;20745;-51
2021/06/20 08:14:04;;;;;;;5.07;3.90;;;27.80;56.70;;;;;;5048013;28;20658;-51
2021/06/20 08:16:33;;;;;;;6.87;4.37;;;27.90;56.60;;;;;;5046412;28;20729;-51
2021/06/20 08:19:00;;;;;;;5.10;4.70;;;28.00;56.70;;;;;;5046643;28;20666;-50
2021/06/20 08:21:27;;;;;;;5.43;3.80;;;28.00;55.80;;;;;;5038862;28;20662;-51
2021/06/20 08:23:55;;;;;;;6.23;4.63;;;28.00;55.80;;;;;;5044140;28;20662;-49
2021/06/20 08:26:22;;;;;;;6.53;4.70;;;28.00;56.20;;;;;;5041236;28;20683;-50
2021/06/20 08:28:49;;;;;;;4.67;4.23;;;27.90;55.70;;;;;;5049966;28;20661;-49
2021/06/20 08:31:16;;;;;;;5.60;5.10;;;27.80;56.10;;;;;;5041731;28;20665;-50
2021/06/20 08:33:45;;;;;;;5.13;4.73;;;27.80;56.20;;;;;;5050745;28;20668;-49
2021/06/20 08:36:12;;;;;;;6.00;4.50;;;27.70;56.10;;;;;;5046822;28;20696;-50
2021/06/20 08:38:39;;;;;;;4.37;3.37;;;27.70;56.00;;;;;;5045998;28;21288;-50
2021/06/20 08:41:06;;;;;;;5.27;4.33;;;27.70;55.70;;;;;;5045362;28;20634;-50
2021/06/20 08:43:34;;;;;;;4.17;3.83;;;27.70;56.30;;;;;;5048946;28;20654;-49
2021/06/20 08:46:01;;;;;;;4.73;4.20;;;27.70;56.40;;;;;;5046351;28;20684;-49
2021/06/20 08:48:28;;;;;;;5.13;4.17;;;27.60;56.50;;;;;;5041417;28;20640;-48
2021/06/20 08:50:57;;;;;;;6.23;4.50;;;27.60;56.80;;;;;;5046025;28;20656;-49
2021/06/20 08:53:24;;;;;;;8.67;5.40;;;27.50;56.00;;;;;;5039007;28;21189;-49
2021/06/20 08:55:51;;;;;;;4.50;4.20;;;27.50;55.70;;;;;;5039453;28;20657;-49
2021/06/20 08:58:21;;;;;;;6.23;4.63;;;27.60;55.30;;;;;;5048173;28;20685;-49
2021/06/20 09:00:48;;;;;;;4.90;4.40;;;27.40;55.70;;;;;;5038660;28;21413;-50
2021/06/20 09:03:16;;;;;;;6.43;4.17;;;27.40;56.00;;;;;;5042544;28;21013;-50
2021/06/20 09:05:58;;;;;;;7.30;4.60;;;27.40;56.00;;;;;;5048903;28;20677;-50
2021/06/20 09:08:26;;;;;;;15.23;4.40;;;27.40;56.10;;;;;;5046185;28;20654;-50
2021/06/20 09:10:54;;;;;;;5.00;4.30;;;27.50;56.00;;;;;;5049551;28;20768;-49
2021/06/20 09:13:21;;;;;;;4.90;4.30;;;27.50;55.50;;;;;;5038379;28;21009;-49
2021/06/20 09:15:58;;;;;;;6.30;4.10;;;27.40;55.00;;;;;;5035774;28;20685;-50
2021/06/20 09:18:25;;;;;;;3.63;3.10;;;27.30;56.00;;;;;;5044356;28;20742;-52
2021/06/20 09:20:52;;;;;;;5.80;3.93;;;27.30;55.80;;;;;;5045127;28;20669;-50
2021/06/20 09:23:21;;;;;;;4.90;4.00;;;27.20;56.00;;;;;;5046071;28;20665;-50
2021/06/20 09:25:54;;;;;;;3.93;3.30;;;27.20;56.10;;;;;;5042457;28;20689;-51
2021/06/20 09:28:21;;;;;;;4.97;3.97;;;27.20;56.00;;;;;;5043536;28;20658;-50
2021/06/20 09:30:50;;;;;;;4.73;3.90;;;27.20;56.00;;;;;;5048085;28;20665;-50
2021/06/20 09:33:17;;;;;;;6.20;3.97;;;27.30;56.30;;;;;;5046504;28;21007;-50
2021/06/20 09:35:45;;;;;;;7.40;4.10;;;27.50;56.20;;;;;;5044170;28;21061;-50
2021/06/20 09:38:17;;;;;;;8.23;3.20;;;27.50;56.20;;;;;;5037844;28;20659;-49
2021/06/20 09:40:46;;;;;;;4.80;4.17;;;27.60;56.20;;;;;;5048730;28;21049;-49
2021/06/20 09:43:14;;;;;;;4.07;3.67;;;27.70;55.70;;;;;;5045091;28;21217;-48
2021/06/20 09:45:43;;;;;;;5.30;4.07;;;27.70;55.40;;;;;;5045395;28;21283;-49
2021/06/20 09:48:20;;;;;;;4.77;3.40;;;27.80;55.40;;;;;;5040073;28;20666;-50
2021/06/20 09:50:47;;;;;;;4.10;3.70;;;27.80;55.30;;;;;;5048585;28;20645;-47
2021/06/20 09:53:15;;;;;;;5.90;3.60;;;27.90;56.20;;;;;;5043243;28;20701;-48
2021/06/20 09:55:42;;;;;;;6.10;4.20;;;27.90;54.70;;;;;;5041383;28;20661;-48
2021/06/20 09:58:10;;;;;;;4.57;3.77;;;28.00;55.40;;;;;;5047172;28;20749;-50
2021/06/20 10:00:42;;;;;;;3.80;3.33;;;28.10;56.50;;;;;;5048970;28;20676;-49
2021/06/20 10:03:09;;;;;;;4.83;3.70;;;28.10;55.40;;;;;;5048116;28;20657;-49
2021/06/20 10:05:37;;;;;;;4.43;3.70;;;28.20;54.70;;;;;;5048043;28;20705;-50
2021/06/20 10:08:05;;;;;;;5.37;3.77;;;28.20;55.90;;;;;;5045185;28;20989;-48
2021/06/20 10:10:32;;;;;;;5.47;3.80;;;28.30;55.60;;;;;;5041676;28;20666;-50
2021/06/20 10:12:59;;;;;;;4.43;3.63;;;28.30;55.40;;;;;;5043805;28;21202;-49
2021/06/20 10:15:30;;;;;;;6.70;3.80;;;28.30;54.80;;;;;;5045566;28;20773;-49
2021/06/20 10:17:59;;;;;;;5.33;4.13;;;28.40;55.00;;;;;;5048191;28;20693;-49
2021/06/20 10:20:31;;;;;;;6.00;4.63;;;28.40;54.40;;;;;;5040052;28;20744;-49
2021/06/20 10:22:58;;;;;;;4.33;3.93;;;28.40;54.20;;;;;;5048300;28;20653;-49
2021/06/20 10:25:27;;;;;;;10.57;4.23;;;28.40;54.20;;;;;;5047967;28;20693;-51
2021/06/20 10:28:02;;;;;;;9.40;4.03;;;28.40;54.80;;;;;;5032096;28;20659;-49
2021/06/20 10:30:34;;;;;;;5.17;3.60;;;28.40;55.10;;;;;;5047447;28;20653;-48
2021/06/20 10:33:07;;;;;;;4.23;3.83;;;28.30;54.00;;;;;;5040480;28;21171;-48
2021/06/20 10:35:34;;;;;;;5.50;4.33;;;28.40;54.20;;;;;;5042650;28;20847;-49
2021/06/20 10:38:01;;;;;;;4.30;3.80;;;28.40;53.90;;;;;;5047729;28;20678;-49
2021/06/20 10:40:30;;;;;;;5.53;3.67;;;28.50;54.00;;;;;;5046848;28;20654;-48
2021/06/20 10:42:59;;;;;;;5.13;3.77;;;28.50;53.70;;;;;;5040575;28;20670;-48
2021/06/20 10:45:33;;;;;;;5.70;3.53;;;28.50;53.30;;;;;;5043952;28;20658;-48
2021/06/20 10:48:11;;;;;;;7.20;4.20;;;28.50;53.00;;;;;;5041757;28;20711;-49
2021/06/20 10:50:39;;;;;;;10.87;3.87;;;28.40;52.30;;;;;;5048387;28;20705;-48
2021/06/20 10:53:06;;;;;;;4.70;3.40;;;28.40;52.60;;;;;;5047396;28;20669;-49
2021/06/20 10:55:44;;;;;;;4.10;3.60;;;28.40;52.90;;;;;;5040750;28;20690;-48
2021/06/20 10:58:21;;;;;;;4.60;3.63;;;28.50;52.50;;;;;;5051180;28;20656;-48
2021/06/20 11:00:51;;;;;;;4.30;3.90;;;28.50;52.30;;;;;;5052484;28;20664;-49
2021/06/20 11:03:26;;;;;;;3.97;3.57;;;28.30;52.40;;;;;;5051567;28;20734;-49
2021/06/20 11:05:54;;;;;;;4.87;3.53;;;28.20;52.60;;;;;;5051179;28;20697;-49
2021/06/20 11:08:34;;;;;;;5.03;3.80;;;28.20;52.60;;;;;;5042804;28;20680;-49
2021/06/20 11:11:09;;;;;;;5.00;3.50;;;28.20;53.40;;;;;;5048914;28;20668;-50
2021/06/20 11:13:36;;;;;;;9.93;4.60;;;28.20;53.20;;;;;;5043542;28;20768;-49
2021/06/20 11:16:06;;;;;;;3.73;2.93;;;28.30;53.70;;;;;;5043237;28;20674;-50
2021/06/20 11:18:34;;;;;;;4.93;3.80;;;28.20;53.60;;;;;;5046543;28;20744;-50
2021/06/20 11:21:01;;;;;;;3.97;3.57;;;28.20;53.30;;;;;;5045954;28;20734;-50
2021/06/20 11:23:31;;;;;;;3.80;2.93;;;28.20;53.70;;;;;;5047726;28;20662;-50
2021/06/20 11:25:58;;;;;;;3.60;3.30;;;28.40;52.30;;;;;;5033829;28;20732;-50
2021/06/20 11:28:25;;;;;;;3.87;3.57;;;28.30;51.90;;;;;;5034830;28;20631;-50
2021/06/20 11:31:08;;;;;;;3.30;2.77;;;28.40;52.70;;;;;;5039617;28;20679;-50
2021/06/20 11:33:35;;;;;;;6.00;3.40;;;28.50;52.60;;;;;;5050106;28;20665;-50
2021/06/20 11:36:03;;;;;;;6.23;3.80;;;28.60;51.90;;;;;;5049276;28;20676;-50
2021/06/20 11:38:32;;;;;;;8.23;3.87;;;28.70;51.50;;;;;;5039649;28;20717;-49
2021/06/20 11:41:16;;;;;;;3.83;3.00;;;28.70;51.10;;;;;;5049752;28;21124;-49
2021/06/20 11:43:54;;;;;;;11.50;4.73;;;28.60;50.60;;;;;;5043982;28;20672;-50
2021/06/20 11:46:23;;;;;;;4.70;4.30;;;28.40;50.30;;;;;;5042025;28;20781;-49
2021/06/20 11:48:52;;;;;;;4.00;3.60;;;28.40;52.00;;;;;;5042680;28;20658;-50
2021/06/20 11:51:29;;;;;;;10.67;3.90;;;28.30;51.00;;;;;;5050959;28;21106;-50
2021/06/20 11:54:08;;;;;;;3.77;3.23;;;28.40;53.30;;;;;;5051185;28;20644;-50
2021/06/20 11:56:35;;;;;;;3.90;3.20;;;28.70;49.70;;;;;;5051378;28;20699;-51
2021/06/20 11:59:02;;;;;;;2.80;2.53;;;28.80;48.90;;;;;;5042276;28;20686;-51
2021/06/20 12:01:47;;;;;;;5.87;2.97;;;28.80;51.00;;;;;;5049816;28;20677;-49
2021/06/20 12:04:16;;;;;;;3.27;2.67;;;28.80;48.10;;;;;;5048080;28;20701;-49
2021/06/20 12:06:44;;;;;;;3.70;3.40;;;28.80;48.10;;;;;;5049256;28;20727;-50
2021/06/20 12:09:11;;;;;;;3.87;3.37;;;28.70;48.30;;;;;;5050502;28;20657;-49
2021/06/20 12:11:39;;;;;;;3.60;3.30;;;28.70;48.30;;;;;;5046187;28;20673;-50
2021/06/20 12:14:06;;;;;;;3.70;2.83;;;28.90;49.40;;;;;;5046659;28;20708;-49
2021/06/20 12:16:45;;;;;;;3.20;3.00;;;29.10;50.80;;;;;;5042823;28;21076;-49
2021/06/20 12:19:13;;;;;;;3.57;3.00;;;29.20;49.50;;;;;;5049775;28;20743;-50
2021/06/20 12:21:41;;;;;;;5.60;3.43;;;29.30;48.70;;;;;;5042501;28;20649;-50
2021/06/20 12:24:11;;;;;;;5.87;3.10;;;29.20;47.70;;;;;;5041089;28;20651;-48
2021/06/20 12:26:48;;;;;;;3.80;3.40;;;29.10;47.90;;;;;;5046748;28;21178;-49
2021/06/20 12:29:16;;;;;;;4.57;2.97;;;28.90;48.70;;;;;;5040157;28;20626;-50
2021/06/20 12:31:55;;;;;;;4.13;3.67;;;28.90;49.90;;;;;;5049773;28;20658;-50
2021/06/20 12:34:22;;;;;;;7.50;4.57;;;28.90;48.90;;;;;;5043438;28;21230;-50
2021/06/20 12:36:58;;;;;;;3.60;3.30;;;28.90;50.30;;;;;;5048479;28;20682;-49
2021/06/20 12:39:25;;;;;;;5.57;3.13;;;28.90;49.30;;;;;;5049661;28;20686;-49
2021/06/20 12:41:59;;;;;;;3.93;3.03;;;29.00;48.70;;;;;;5048677;28;20775;-48
2021/06/20 12:44:37;;;;;;;2.70;2.50;;;29.00;48.00;;;;;;5036639;28;21159;-47
2021/06/20 12:47:05;;;;;;;4.40;3.30;;;29.10;49.20;;;;;;5041927;28;20761;-51
2021/06/20 12:49:33;;;;;;;5.80;2.90;;;29.20;46.90;;;;;;5037303;28;20651;-48